sensor_id;sensor_type;location;lat;lon;timestamp;P1;durP1;ratioP1;P2;durP2;ratioP2
75847;SDS011;65750;47.540;19.090;2023-03-14T00:00:51;7.33;;;2.50;;
75847;SDS011;65750;47.540;19.090;2023-03-14T00:03:18;4.03;;;2.20;;
75847;SDS011;65750;47.540;19.090;2023-03-14T00:05:45;4.15;;;2.20;;
75847;SDS011;65750;47.540;19.090;2023-03-14T00:08:12;3.72;;;2.20;;
75847;SDS011;65750;47.540;19.090;2023-03-14T00:10:40;4.37;;;2.28;;
75847;SDS011;65750;47.540;19.090;2023-03-14T00:13:07;3.60;;;1.83;;
75847;SDS011;65750;47.540;19.090;2023-03-14T00:15:35;3.37;;;1.62;;
75847;SDS011;65750;47.540;19.090;2023-03-14T00:18:03;4.18;;;2.12;;
75847;SDS011;65750;47.540;19.090;2023-03-14T00:20:30;6.07;;;2.47;;
75847;SDS011;65750;47.540;19.090;2023-03-14T00:22:57;4.78;;;1.98;;
75847;SDS011;65750;47.540;19.090;2023-03-14T00:25:24;3.67;;;2.10;;
75847;SDS011;65750;47.540;19.090;2023-03-14T00:27:51;4.85;;;2.30;;
75847;SDS011;65750;47.540;19.090;2023-03-14T00:30:19;4.40;;;2.00;;
75847;SDS011;65750;47.540;19.090;2023-03-14T00:32:48;4.68;;;2.40;;
75847;SDS011;65750;47.540;19.090;2023-03-14T00:35:15;3.92;;;2.08;;
75847;SDS011;65750;47.540;19.090;2023-03-14T00:37:42;4.20;;;2.17;;
75847;SDS011;65750;47.540;19.090;2023-03-14T00:40:10;3.92;;;2.10;;
75847;SDS011;65750;47.540;19.090;2023-03-14T00:42:38;4.20;;;2.20;;
75847;SDS011;65750;47.540;19.090;2023-03-14T00:45:05;8.75;;;2.20;;
75847;SDS011;65750;47.540;19.090;2023-03-14T00:47:34;4.03;;;2.05;;
75847;SDS011;65750;47.540;19.090;2023-03-14T00:50:03;4.60;;;2.20;;
75847;SDS011;65750;47.540;19.090;2023-03-14T00:52:30;4.57;;;2.42;;
75847;SDS011;65750;47.540;19.090;2023-03-14T00:54:58;4.93;;;2.40;;
75847;SDS011;65750;47.540;19.090;2023-03-14T00:57:25;4.47;;;2.10;;
75847;SDS011;65750;47.540;19.090;2023-03-14T00:59:52;4.43;;;2.10;;
75847;SDS011;65750;47.540;19.090;2023-03-14T01:02:20;3.73;;;2.07;;
75847;SDS011;65750;47.540;19.090;2023-03-14T01:04:48;4.78;;;2.47;;
75847;SDS011;65750;47.540;19.090;2023-03-14T01:07:16;3.67;;;2.15;;
75847;SDS011;65750;47.540;19.090;2023-03-14T01:09:44;3.33;;;2.20;;
75847;SDS011;65750;47.540;19.090;2023-03-14T01:12:11;3.70;;;2.03;;
75847;SDS011;65750;47.540;19.090;2023-03-14T01:14:40;4.33;;;2.47;;
75847;SDS011;65750;47.540;19.090;2023-03-14T01:17:08;5.47;;;2.30;;
75847;SDS011;65750;47.540;19.090;2023-03-14T01:19:35;4.12;;;2.20;;
75847;SDS011;65750;47.540;19.090;2023-03-14T01:22:02;5.20;;;1.92;;
75847;SDS011;65750;47.540;19.090;2023-03-14T01:24:30;4.75;;;2.37;;
75847;SDS011;65750;47.540;19.090;2023-03-14T01:26:57;4.60;;;2.20;;
75847;SDS011;65750;47.540;19.090;2023-03-14T01:29:25;3.97;;;2.03;;
75847;SDS011;65750;47.540;19.090;2023-03-14T01:31:52;3.65;;;2.15;;
75847;SDS011;65750;47.540;19.090;2023-03-14T01:34:20;4.03;;;2.08;;
75847;SDS011;65750;47.540;19.090;2023-03-14T01:36:47;3.60;;;2.25;;
75847;SDS011;65750;47.540;19.090;2023-03-14T01:39:15;4.47;;;2.20;;
75847;SDS011;65750;47.540;19.090;2023-03-14T01:41:43;4.12;;;2.40;;
75847;SDS011;65750;47.540;19.090;2023-03-14T01:44:10;3.58;;;2.03;;
75847;SDS011;65750;47.540;19.090;2023-03-14T01:46:39;3.65;;;2.03;;
75847;SDS011;65750;47.540;19.090;2023-03-14T01:49:15;4.10;;;2.25;;
75847;SDS011;65750;47.540;19.090;2023-03-14T01:51:49;4.07;;;2.00;;
75847;SDS011;65750;47.540;19.090;2023-03-14T01:54:19;3.53;;;1.98;;
75847;SDS011;65750;47.540;19.090;2023-03-14T01:56:51;4.07;;;2.20;;
75847;SDS011;65750;47.540;19.090;2023-03-14T01:59:19;4.93;;;2.20;;
75847;SDS011;65750;47.540;19.090;2023-03-14T02:01:47;5.15;;;2.60;;
75847;SDS011;65750;47.540;19.090;2023-03-14T02:04:15;3.50;;;2.10;;
75847;SDS011;65750;47.540;19.090;2023-03-14T02:06:46;4.32;;;2.40;;
75847;SDS011;65750;47.540;19.090;2023-03-14T02:09:16;4.03;;;2.00;;
75847;SDS011;65750;47.540;19.090;2023-03-14T02:11:44;4.40;;;2.33;;
75847;SDS011;65750;47.540;19.090;2023-03-14T02:14:16;3.75;;;2.42;;
75847;SDS011;65750;47.540;19.090;2023-03-14T02:16:52;4.00;;;2.20;;
75847;SDS011;65750;47.540;19.090;2023-03-14T02:19:21;4.87;;;2.55;;
75847;SDS011;65750;47.540;19.090;2023-03-14T02:21:56;4.32;;;2.10;;
75847;SDS011;65750;47.540;19.090;2023-03-14T02:24:30;3.90;;;2.28;;
75847;SDS011;65750;47.540;19.090;2023-03-14T02:27:05;4.22;;;2.17;;
75847;SDS011;65750;47.540;19.090;2023-03-14T02:29:41;4.40;;;2.40;;
75847;SDS011;65750;47.540;19.090;2023-03-14T02:32:13;4.22;;;2.40;;
75847;SDS011;65750;47.540;19.090;2023-03-14T02:34:41;3.95;;;2.40;;
75847;SDS011;65750;47.540;19.090;2023-03-14T02:37:11;5.50;;;2.20;;
75847;SDS011;65750;47.540;19.090;2023-03-14T02:39:41;4.32;;;2.37;;
75847;SDS011;65750;47.540;19.090;2023-03-14T02:42:13;4.33;;;2.00;;
75847;SDS011;65750;47.540;19.090;2023-03-14T02:44:50;5.12;;;2.53;;
75847;SDS011;65750;47.540;19.090;2023-03-14T02:47:20;5.07;;;2.35;;
75847;SDS011;65750;47.540;19.090;2023-03-14T02:49:49;4.25;;;2.50;;
75847;SDS011;65750;47.540;19.090;2023-03-14T02:52:17;4.87;;;2.33;;
75847;SDS011;65750;47.540;19.090;2023-03-14T02:54:45;3.87;;;2.10;;
75847;SDS011;65750;47.540;19.090;2023-03-14T02:57:13;5.55;;;2.53;;
75847;SDS011;65750;47.540;19.090;2023-03-14T02:59:40;3.92;;;2.20;;
75847;SDS011;65750;47.540;19.090;2023-03-14T03:02:07;3.75;;;2.12;;
75847;SDS011;65750;47.540;19.090;2023-03-14T03:04:34;4.30;;;2.37;;
75847;SDS011;65750;47.540;19.090;2023-03-14T03:07:01;3.63;;;2.20;;
75847;SDS011;65750;47.540;19.090;2023-03-14T03:09:29;4.75;;;2.50;;
75847;SDS011;65750;47.540;19.090;2023-03-14T03:11:56;3.97;;;2.20;;
75847;SDS011;65750;47.540;19.090;2023-03-14T03:14:25;4.57;;;2.28;;
75847;SDS011;65750;47.540;19.090;2023-03-14T03:16:55;4.90;;;2.53;;
75847;SDS011;65750;47.540;19.090;2023-03-14T03:19:22;4.37;;;2.30;;
75847;SDS011;65750;47.540;19.090;2023-03-14T03:21:49;4.57;;;2.30;;
75847;SDS011;65750;47.540;19.090;2023-03-14T03:24:16;4.25;;;2.58;;
75847;SDS011;65750;47.540;19.090;2023-03-14T03:26:43;4.50;;;2.40;;
75847;SDS011;65750;47.540;19.090;2023-03-14T03:29:10;4.97;;;2.62;;
75847;SDS011;65750;47.540;19.090;2023-03-14T03:31:39;3.60;;;2.10;;
75847;SDS011;65750;47.540;19.090;2023-03-14T03:34:06;4.05;;;2.35;;
75847;SDS011;65750;47.540;19.090;2023-03-14T03:36:33;5.20;;;2.72;;
75847;SDS011;65750;47.540;19.090;2023-03-14T03:39:01;4.25;;;2.30;;
75847;SDS011;65750;47.540;19.090;2023-03-14T03:41:29;4.97;;;3.72;;
75847;SDS011;65750;47.540;19.090;2023-03-14T03:43:56;4.43;;;2.50;;
75847;SDS011;65750;47.540;19.090;2023-03-14T03:46:23;4.20;;;2.78;;
75847;SDS011;65750;47.540;19.090;2023-03-14T03:49:10;3.40;;;2.10;;
75847;SDS011;65750;47.540;19.090;2023-03-14T03:51:37;4.85;;;2.22;;
75847;SDS011;65750;47.540;19.090;2023-03-14T03:54:05;4.95;;;2.75;;
75847;SDS011;65750;47.540;19.090;2023-03-14T03:56:32;4.37;;;2.50;;
75847;SDS011;65750;47.540;19.090;2023-03-14T03:58:59;4.18;;;2.40;;
75847;SDS011;65750;47.540;19.090;2023-03-14T04:01:26;5.00;;;3.05;;
75847;SDS011;65750;47.540;19.090;2023-03-14T04:03:54;4.37;;;2.40;;
75847;SDS011;65750;47.540;19.090;2023-03-14T04:06:23;3.90;;;2.33;;
75847;SDS011;65750;47.540;19.090;2023-03-14T04:08:51;4.37;;;2.37;;
75847;SDS011;65750;47.540;19.090;2023-03-14T04:11:21;4.47;;;2.40;;
75847;SDS011;65750;47.540;19.090;2023-03-14T04:13:49;4.03;;;2.40;;
75847;SDS011;65750;47.540;19.090;2023-03-14T04:16:17;4.28;;;2.60;;
75847;SDS011;65750;47.540;19.090;2023-03-14T04:18:47;4.75;;;2.25;;
75847;SDS011;65750;47.540;19.090;2023-03-14T04:21:14;4.30;;;2.37;;
75847;SDS011;65750;47.540;19.090;2023-03-14T04:23:44;3.92;;;2.30;;
75847;SDS011;65750;47.540;19.090;2023-03-14T04:26:11;3.72;;;2.35;;
75847;SDS011;65750;47.540;19.090;2023-03-14T04:28:38;4.97;;;2.80;;
75847;SDS011;65750;47.540;19.090;2023-03-14T04:31:09;4.15;;;2.65;;
75847;SDS011;65750;47.540;19.090;2023-03-14T04:33:37;4.30;;;2.60;;
75847;SDS011;65750;47.540;19.090;2023-03-14T04:36:05;4.85;;;2.50;;
75847;SDS011;65750;47.540;19.090;2023-03-14T04:38:33;4.03;;;2.60;;
75847;SDS011;65750;47.540;19.090;2023-03-14T04:41:02;4.03;;;2.62;;
75847;SDS011;65750;47.540;19.090;2023-03-14T04:43:30;3.90;;;2.50;;
75847;SDS011;65750;47.540;19.090;2023-03-14T04:45:57;4.47;;;2.60;;
75847;SDS011;65750;47.540;19.090;2023-03-14T04:48:25;4.20;;;2.53;;
75847;SDS011;65750;47.540;19.090;2023-03-14T04:50:53;5.55;;;2.40;;
75847;SDS011;65750;47.540;19.090;2023-03-14T04:53:20;4.05;;;2.30;;
75847;SDS011;65750;47.540;19.090;2023-03-14T04:55:49;4.10;;;2.45;;
75847;SDS011;65750;47.540;19.090;2023-03-14T04:58:18;4.40;;;2.70;;
75847;SDS011;65750;47.540;19.090;2023-03-14T05:00:45;4.78;;;2.67;;
75847;SDS011;65750;47.540;19.090;2023-03-14T05:03:14;5.50;;;2.72;;
75847;SDS011;65750;47.540;19.090;2023-03-14T05:05:42;4.25;;;2.28;;
75847;SDS011;65750;47.540;19.090;2023-03-14T05:08:10;4.05;;;2.33;;
75847;SDS011;65750;47.540;19.090;2023-03-14T05:10:37;4.40;;;2.43;;
75847;SDS011;65750;47.540;19.090;2023-03-14T05:13:06;4.05;;;2.58;;
75847;SDS011;65750;47.540;19.090;2023-03-14T05:15:35;4.15;;;2.40;;
75847;SDS011;65750;47.540;19.090;2023-03-14T05:18:03;4.37;;;2.35;;
75847;SDS011;65750;47.540;19.090;2023-03-14T05:20:30;4.80;;;2.50;;
75847;SDS011;65750;47.540;19.090;2023-03-14T05:22:58;4.53;;;2.30;;
75847;SDS011;65750;47.540;19.090;2023-03-14T05:25:26;4.68;;;3.10;;
75847;SDS011;65750;47.540;19.090;2023-03-14T05:27:55;4.57;;;2.83;;
75847;SDS011;65750;47.540;19.090;2023-03-14T05:30:22;4.62;;;2.55;;
75847;SDS011;65750;47.540;19.090;2023-03-14T05:32:51;4.30;;;2.70;;
75847;SDS011;65750;47.540;19.090;2023-03-14T05:35:19;5.00;;;2.60;;
75847;SDS011;65750;47.540;19.090;2023-03-14T05:37:46;4.43;;;2.53;;
75847;SDS011;65750;47.540;19.090;2023-03-14T05:40:14;4.15;;;2.67;;
75847;SDS011;65750;47.540;19.090;2023-03-14T05:42:41;4.28;;;2.47;;
75847;SDS011;65750;47.540;19.090;2023-03-14T05:45:09;5.03;;;2.87;;
75847;SDS011;65750;47.540;19.090;2023-03-14T05:47:37;5.23;;;2.90;;
75847;SDS011;65750;47.540;19.090;2023-03-14T05:50:06;4.45;;;2.80;;
75847;SDS011;65750;47.540;19.090;2023-03-14T05:52:33;3.80;;;2.50;;
75847;SDS011;65750;47.540;19.090;2023-03-14T05:55:01;4.85;;;2.70;;
75847;SDS011;65750;47.540;19.090;2023-03-14T05:57:28;5.12;;;2.75;;
75847;SDS011;65750;47.540;19.090;2023-03-14T05:59:55;5.10;;;2.60;;
75847;SDS011;65750;47.540;19.090;2023-03-14T06:02:23;4.10;;;2.65;;
75847;SDS011;65750;47.540;19.090;2023-03-14T06:04:51;4.43;;;2.47;;
75847;SDS011;65750;47.540;19.090;2023-03-14T06:07:20;5.78;;;3.00;;
75847;SDS011;65750;47.540;19.090;2023-03-14T06:09:47;4.28;;;2.50;;
75847;SDS011;65750;47.540;19.090;2023-03-14T06:12:15;5.20;;;2.63;;
75847;SDS011;65750;47.540;19.090;2023-03-14T06:14:42;4.18;;;2.60;;
75847;SDS011;65750;47.540;19.090;2023-03-14T06:17:10;4.97;;;2.60;;
75847;SDS011;65750;47.540;19.090;2023-03-14T06:19:38;5.28;;;2.60;;
75847;SDS011;65750;47.540;19.090;2023-03-14T06:22:05;4.62;;;2.70;;
75847;SDS011;65750;47.540;19.090;2023-03-14T06:24:34;4.67;;;2.57;;
75847;SDS011;65750;47.540;19.090;2023-03-14T06:27:01;4.28;;;2.50;;
75847;SDS011;65750;47.540;19.090;2023-03-14T06:29:28;6.07;;;3.33;;
75847;SDS011;65750;47.540;19.090;2023-03-14T06:31:56;5.78;;;2.70;;
75847;SDS011;65750;47.540;19.090;2023-03-14T06:34:23;5.95;;;2.95;;
75847;SDS011;65750;47.540;19.090;2023-03-14T06:36:51;4.83;;;2.70;;
75847;SDS011;65750;47.540;19.090;2023-03-14T06:39:18;5.40;;;2.78;;
75847;SDS011;65750;47.540;19.090;2023-03-14T06:41:48;4.32;;;2.58;;
75847;SDS011;65750;47.540;19.090;2023-03-14T06:44:16;5.97;;;3.10;;
75847;SDS011;65750;47.540;19.090;2023-03-14T06:46:43;6.12;;;3.15;;
75847;SDS011;65750;47.540;19.090;2023-03-14T06:49:11;6.70;;;3.20;;
75847;SDS011;65750;47.540;19.090;2023-03-14T06:51:38;5.10;;;2.97;;
75847;SDS011;65750;47.540;19.090;2023-03-14T06:54:05;6.00;;;3.20;;
75847;SDS011;65750;47.540;19.090;2023-03-14T06:56:34;7.70;;;3.90;;
75847;SDS011;65750;47.540;19.090;2023-03-14T06:59:02;6.30;;;3.42;;
75847;SDS011;65750;47.540;19.090;2023-03-14T07:01:30;8.20;;;3.53;;
75847;SDS011;65750;47.540;19.090;2023-03-14T07:04:00;6.18;;;3.53;;
75847;SDS011;65750;47.540;19.090;2023-03-14T07:06:28;7.55;;;3.70;;
75847;SDS011;65750;47.540;19.090;2023-03-14T07:08:55;10.98;;;3.92;;
75847;SDS011;65750;47.540;19.090;2023-03-14T07:11:23;13.25;;;4.70;;
75847;SDS011;65750;47.540;19.090;2023-03-14T07:13:50;21.17;;;5.47;;
75847;SDS011;65750;47.540;19.090;2023-03-14T07:16:19;10.45;;;4.12;;
75847;SDS011;65750;47.540;19.090;2023-03-14T07:18:46;15.80;;;3.90;;
75847;SDS011;65750;47.540;19.090;2023-03-14T07:21:15;14.85;;;3.90;;
75847;SDS011;65750;47.540;19.090;2023-03-14T07:23:42;13.07;;;4.12;;
75847;SDS011;65750;47.540;19.090;2023-03-14T07:26:10;11.30;;;4.40;;
75847;SDS011;65750;47.540;19.090;2023-03-14T07:28:38;10.07;;;4.28;;
75847;SDS011;65750;47.540;19.090;2023-03-14T07:31:06;12.18;;;4.55;;
75847;SDS011;65750;47.540;19.090;2023-03-14T07:33:34;10.73;;;4.03;;
75847;SDS011;65750;47.540;19.090;2023-03-14T07:36:02;11.02;;;4.25;;
75847;SDS011;65750;47.540;19.090;2023-03-14T07:38:29;15.67;;;4.70;;
75847;SDS011;65750;47.540;19.090;2023-03-14T07:40:58;11.20;;;3.90;;
75847;SDS011;65750;47.540;19.090;2023-03-14T07:43:30;10.50;;;4.40;;
75847;SDS011;65750;47.540;19.090;2023-03-14T07:45:59;10.98;;;4.47;;
75847;SDS011;65750;47.540;19.090;2023-03-14T07:48:26;30.02;;;8.38;;
75847;SDS011;65750;47.540;19.090;2023-03-14T07:50:55;32.60;;;9.53;;
75847;SDS011;65750;47.540;19.090;2023-03-14T07:53:22;22.42;;;7.78;;
75847;SDS011;65750;47.540;19.090;2023-03-14T07:55:50;22.08;;;7.72;;
75847;SDS011;65750;47.540;19.090;2023-03-14T07:58:18;30.05;;;8.35;;
75847;SDS011;65750;47.540;19.090;2023-03-14T08:00:47;29.37;;;8.77;;
75847;SDS011;65750;47.540;19.090;2023-03-14T08:03:14;29.33;;;8.07;;
75847;SDS011;65750;47.540;19.090;2023-03-14T08:05:41;32.40;;;7.82;;
75847;SDS011;65750;47.540;19.090;2023-03-14T08:08:10;23.50;;;7.80;;
75847;SDS011;65750;47.540;19.090;2023-03-14T08:10:37;25.65;;;7.93;;
75847;SDS011;65750;47.540;19.090;2023-03-14T08:13:05;27.95;;;7.85;;
75847;SDS011;65750;47.540;19.090;2023-03-14T08:15:32;22.23;;;6.93;;
75847;SDS011;65750;47.540;19.090;2023-03-14T08:17:59;21.77;;;6.97;;
75847;SDS011;65750;47.540;19.090;2023-03-14T08:20:27;20.67;;;7.25;;
75847;SDS011;65750;47.540;19.090;2023-03-14T08:22:55;24.65;;;7.10;;
75847;SDS011;65750;47.540;19.090;2023-03-14T08:25:24;22.05;;;7.32;;
75847;SDS011;65750;47.540;19.090;2023-03-14T08:27:52;24.97;;;8.10;;
75847;SDS011;65750;47.540;19.090;2023-03-14T08:30:20;20.58;;;6.18;;
75847;SDS011;65750;47.540;19.090;2023-03-14T08:32:48;18.02;;;6.85;;
75847;SDS011;65750;47.540;19.090;2023-03-14T08:35:15;25.45;;;6.87;;
75847;SDS011;65750;47.540;19.090;2023-03-14T08:37:42;23.70;;;6.70;;
75847;SDS011;65750;47.540;19.090;2023-03-14T08:40:10;21.67;;;7.17;;
75847;SDS011;65750;47.540;19.090;2023-03-14T08:42:39;18.70;;;6.35;;
75847;SDS011;65750;47.540;19.090;2023-03-14T08:45:07;16.75;;;6.35;;
75847;SDS011;65750;47.540;19.090;2023-03-14T08:47:35;19.73;;;6.18;;
75847;SDS011;65750;47.540;19.090;2023-03-14T08:50:02;16.62;;;5.65;;
75847;SDS011;65750;47.540;19.090;2023-03-14T08:52:30;19.90;;;6.70;;
75847;SDS011;65750;47.540;19.090;2023-03-14T08:54:57;17.30;;;6.00;;
75847;SDS011;65750;47.540;19.090;2023-03-14T08:57:25;18.20;;;6.10;;
75847;SDS011;65750;47.540;19.090;2023-03-14T08:59:54;18.98;;;6.25;;
75847;SDS011;65750;47.540;19.090;2023-03-14T09:02:23;16.62;;;6.18;;
75847;SDS011;65750;47.540;19.090;2023-03-14T09:04:50;22.37;;;6.40;;
75847;SDS011;65750;47.540;19.090;2023-03-14T09:07:18;14.55;;;6.18;;
75847;SDS011;65750;47.540;19.090;2023-03-14T09:09:45;16.52;;;6.12;;
75847;SDS011;65750;47.540;19.090;2023-03-14T09:12:12;15.20;;;5.90;;
75847;SDS011;65750;47.540;19.090;2023-03-14T09:14:39;16.98;;;5.65;;
75847;SDS011;65750;47.540;19.090;2023-03-14T09:17:08;11.07;;;5.67;;
75847;SDS011;65750;47.540;19.090;2023-03-14T09:19:35;15.95;;;5.70;;
75847;SDS011;65750;47.540;19.090;2023-03-14T09:22:03;14.80;;;5.80;;
75847;SDS011;65750;47.540;19.090;2023-03-14T09:24:30;15.98;;;5.78;;
75847;SDS011;65750;47.540;19.090;2023-03-14T09:26:57;12.27;;;5.32;;
75847;SDS011;65750;47.540;19.090;2023-03-14T09:29:24;13.40;;;5.13;;
75847;SDS011;65750;47.540;19.090;2023-03-14T09:31:52;14.87;;;5.70;;
75847;SDS011;65750;47.540;19.090;2023-03-14T09:34:23;16.87;;;5.60;;
75847;SDS011;65750;47.540;19.090;2023-03-14T09:36:50;15.30;;;5.70;;
75847;SDS011;65750;47.540;19.090;2023-03-14T09:39:18;12.73;;;5.87;;
75847;SDS011;65750;47.540;19.090;2023-03-14T09:41:45;19.10;;;5.83;;
75847;SDS011;65750;47.540;19.090;2023-03-14T09:44:14;11.35;;;5.32;;
75847;SDS011;65750;47.540;19.090;2023-03-14T09:46:44;12.15;;;5.60;;
75847;SDS011;65750;47.540;19.090;2023-03-14T09:49:15;13.75;;;4.90;;
75847;SDS011;65750;47.540;19.090;2023-03-14T09:51:49;11.18;;;5.15;;
75847;SDS011;65750;47.540;19.090;2023-03-14T09:54:24;11.00;;;4.93;;
75847;SDS011;65750;47.540;19.090;2023-03-14T09:56:57;12.37;;;5.30;;
75847;SDS011;65750;47.540;19.090;2023-03-14T09:59:27;12.10;;;5.12;;
75847;SDS011;65750;47.540;19.090;2023-03-14T10:01:55;11.15;;;5.40;;
75847;SDS011;65750;47.540;19.090;2023-03-14T10:04:23;11.32;;;5.43;;
75847;SDS011;65750;47.540;19.090;2023-03-14T10:06:51;11.00;;;5.03;;
75847;SDS011;65750;47.540;19.090;2023-03-14T10:09:19;11.25;;;4.80;;
75847;SDS011;65750;47.540;19.090;2023-03-14T10:11:54;11.27;;;5.20;;
75847;SDS011;65750;47.540;19.090;2023-03-14T10:14:31;12.68;;;5.50;;
75847;SDS011;65750;47.540;19.090;2023-03-14T10:17:06;10.32;;;4.93;;
75847;SDS011;65750;47.540;19.090;2023-03-14T10:19:35;13.07;;;4.70;;
75847;SDS011;65750;47.540;19.090;2023-03-14T10:22:11;10.13;;;5.30;;
75847;SDS011;65750;47.540;19.090;2023-03-14T10:24:42;10.98;;;4.93;;
75847;SDS011;65750;47.540;19.090;2023-03-14T10:27:17;10.07;;;5.15;;
75847;SDS011;65750;47.540;19.090;2023-03-14T10:29:51;14.43;;;5.80;;
75847;SDS011;65750;47.540;19.090;2023-03-14T10:32:27;8.87;;;4.77;;
75847;SDS011;65750;47.540;19.090;2023-03-14T10:35:08;11.88;;;5.40;;
75847;SDS011;65750;47.540;19.090;2023-03-14T10:37:53;10.93;;;5.00;;
75847;SDS011;65750;47.540;19.090;2023-03-14T10:40:24;13.68;;;5.05;;
75847;SDS011;65750;47.540;19.090;2023-03-14T10:42:54;10.85;;;4.57;;
75847;SDS011;65750;47.540;19.090;2023-03-14T10:45:23;11.27;;;5.33;;
75847;SDS011;65750;47.540;19.090;2023-03-14T10:47:57;8.80;;;4.30;;
75847;SDS011;65750;47.540;19.090;2023-03-14T10:50:26;10.38;;;4.57;;
75847;SDS011;65750;47.540;19.090;2023-03-14T10:52:56;10.55;;;4.62;;
75847;SDS011;65750;47.540;19.090;2023-03-14T10:55:39;12.07;;;4.60;;
75847;SDS011;65750;47.540;19.090;2023-03-14T10:58:17;9.83;;;4.53;;
75847;SDS011;65750;47.540;19.090;2023-03-14T11:00:46;10.95;;;5.30;;
75847;SDS011;65750;47.540;19.090;2023-03-14T11:03:18;8.13;;;4.55;;
75847;SDS011;65750;47.540;19.090;2023-03-14T11:05:48;9.43;;;4.62;;
75847;SDS011;65750;47.540;19.090;2023-03-14T11:08:22;10.45;;;5.18;;
75847;SDS011;65750;47.540;19.090;2023-03-14T11:10:56;9.53;;;4.67;;
75847;SDS011;65750;47.540;19.090;2023-03-14T11:13:29;9.60;;;4.35;;
75847;SDS011;65750;47.540;19.090;2023-03-14T11:16:02;10.20;;;4.85;;
75847;SDS011;65750;47.540;19.090;2023-03-14T11:18:43;9.13;;;4.57;;
75847;SDS011;65750;47.540;19.090;2023-03-14T11:21:28;11.25;;;4.90;;
75847;SDS011;65750;47.540;19.090;2023-03-14T11:24:02;11.00;;;4.50;;
75847;SDS011;65750;47.540;19.090;2023-03-14T11:26:40;8.73;;;4.30;;
75847;SDS011;65750;47.540;19.090;2023-03-14T11:29:15;8.43;;;4.43;;
75847;SDS011;65750;47.540;19.090;2023-03-14T11:31:47;8.15;;;4.20;;
75847;SDS011;65750;47.540;19.090;2023-03-14T11:34:16;9.60;;;5.00;;
75847;SDS011;65750;47.540;19.090;2023-03-14T11:36:46;8.27;;;4.17;;
75847;SDS011;65750;47.540;19.090;2023-03-14T11:39:20;8.13;;;4.50;;
75847;SDS011;65750;47.540;19.090;2023-03-14T11:41:47;7.97;;;4.40;;
75847;SDS011;65750;47.540;19.090;2023-03-14T11:44:17;7.53;;;4.20;;
75847;SDS011;65750;47.540;19.090;2023-03-14T11:46:47;9.45;;;4.32;;
75847;SDS011;65750;47.540;19.090;2023-03-14T11:49:21;12.17;;;4.63;;
75847;SDS011;65750;47.540;19.090;2023-03-14T11:52:00;8.25;;;3.85;;
75847;SDS011;65750;47.540;19.090;2023-03-14T11:54:34;9.13;;;4.55;;
75847;SDS011;65750;47.540;19.090;2023-03-14T11:57:11;8.75;;;4.53;;
75847;SDS011;65750;47.540;19.090;2023-03-14T11:59:43;10.07;;;4.35;;
75847;SDS011;65750;47.540;19.090;2023-03-14T12:02:16;7.80;;;3.83;;
75847;SDS011;65750;47.540;19.090;2023-03-14T12:04:50;8.18;;;3.53;;
75847;SDS011;65750;47.540;19.090;2023-03-14T12:07:32;7.03;;;3.83;;
75847;SDS011;65750;47.540;19.090;2023-03-14T12:10:03;6.93;;;3.60;;
75847;SDS011;65750;47.540;19.090;2023-03-14T12:12:31;6.65;;;3.85;;
75847;SDS011;65750;47.540;19.090;2023-03-14T12:14:58;7.03;;;3.20;;
75847;SDS011;65750;47.540;19.090;2023-03-14T12:17:33;9.13;;;3.58;;
75847;SDS011;65750;47.540;19.090;2023-03-14T12:20:03;7.53;;;3.90;;
75847;SDS011;65750;47.540;19.090;2023-03-14T12:22:33;7.03;;;3.20;;
75847;SDS011;65750;47.540;19.090;2023-03-14T12:25:05;10.15;;;3.45;;
75847;SDS011;65750;47.540;19.090;2023-03-14T12:27:47;7.00;;;3.37;;
75847;SDS011;65750;47.540;19.090;2023-03-14T12:30:36;7.25;;;3.42;;
75847;SDS011;65750;47.540;19.090;2023-03-14T12:33:20;5.65;;;3.47;;
75847;SDS011;65750;47.540;19.090;2023-03-14T12:35:58;6.87;;;3.50;;
75847;SDS011;65750;47.540;19.090;2023-03-14T12:38:51;6.35;;;3.20;;
75847;SDS011;65750;47.540;19.090;2023-03-14T12:41:26;6.87;;;3.20;;
75847;SDS011;65750;47.540;19.090;2023-03-14T12:43:55;7.55;;;3.28;;
75847;SDS011;65750;47.540;19.090;2023-03-14T12:46:23;6.28;;;3.20;;
75847;SDS011;65750;47.540;19.090;2023-03-14T12:48:55;6.18;;;3.50;;
75847;SDS011;65750;47.540;19.090;2023-03-14T12:51:34;5.22;;;2.95;;
75847;SDS011;65750;47.540;19.090;2023-03-14T12:54:15;5.80;;;3.03;;
75847;SDS011;65750;47.540;19.090;2023-03-14T12:56:52;6.65;;;3.30;;
75847;SDS011;65750;47.540;19.090;2023-03-14T12:59:45;7.75;;;3.80;;
75847;SDS011;65750;47.540;19.090;2023-03-14T13:02:20;5.72;;;3.12;;
75847;SDS011;65750;47.540;19.090;2023-03-14T13:04:51;5.05;;;3.05;;
75847;SDS011;65750;47.540;19.090;2023-03-14T13:07:32;6.13;;;2.90;;
75847;SDS011;65750;47.540;19.090;2023-03-14T13:10:18;7.30;;;3.10;;
75847;SDS011;65750;47.540;19.090;2023-03-14T13:12:52;6.53;;;3.20;;
75847;SDS011;65750;47.540;19.090;2023-03-14T13:15:24;7.32;;;3.22;;
75847;SDS011;65750;47.540;19.090;2023-03-14T13:17:59;5.72;;;3.17;;
75847;SDS011;65750;47.540;19.090;2023-03-14T13:20:32;6.37;;;3.00;;
75847;SDS011;65750;47.540;19.090;2023-03-14T13:23:02;6.35;;;3.08;;
75847;SDS011;65750;47.540;19.090;2023-03-14T13:25:29;5.72;;;3.22;;
75847;SDS011;65750;47.540;19.090;2023-03-14T13:28:00;5.53;;;2.97;;
75847;SDS011;65750;47.540;19.090;2023-03-14T13:30:28;5.35;;;2.92;;
75847;SDS011;65750;47.540;19.090;2023-03-14T13:33:03;6.40;;;3.20;;
75847;SDS011;65750;47.540;19.090;2023-03-14T13:35:38;5.40;;;2.80;;
75847;SDS011;65750;47.540;19.090;2023-03-14T13:38:15;5.10;;;3.00;;
75847;SDS011;65750;47.540;19.090;2023-03-14T13:40:44;5.55;;;2.75;;
75847;SDS011;65750;47.540;19.090;2023-03-14T13:43:15;5.55;;;3.12;;
75847;SDS011;65750;47.540;19.090;2023-03-14T13:45:44;6.03;;;3.10;;
75847;SDS011;65750;47.540;19.090;2023-03-14T13:48:15;6.18;;;3.12;;
75847;SDS011;65750;47.540;19.090;2023-03-14T13:53:28;6.25;;;3.03;;
75847;SDS011;65750;47.540;19.090;2023-03-14T13:55:55;5.97;;;3.20;;
75847;SDS011;65750;47.540;19.090;2023-03-14T13:58:25;6.43;;;2.77;;
75847;SDS011;65750;47.540;19.090;2023-03-14T14:00:54;8.02;;;3.30;;
75847;SDS011;65750;47.540;19.090;2023-03-14T14:03:24;5.35;;;2.83;;
75847;SDS011;65750;47.540;19.090;2023-03-14T14:05:51;5.75;;;2.87;;
75847;SDS011;65750;47.540;19.090;2023-03-14T14:08:21;6.47;;;3.08;;
75847;SDS011;65750;47.540;19.090;2023-03-14T14:10:50;10.73;;;3.93;;
75847;SDS011;65750;47.540;19.090;2023-03-14T14:13:20;13.55;;;4.10;;
75847;SDS011;65750;47.540;19.090;2023-03-14T14:15:49;12.02;;;4.07;;
75847;SDS011;65750;47.540;19.090;2023-03-14T14:18:18;10.93;;;4.28;;
75847;SDS011;65750;47.540;19.090;2023-03-14T14:20:49;13.52;;;5.25;;
75847;SDS011;65750;47.540;19.090;2023-03-14T14:23:16;14.63;;;4.33;;
75847;SDS011;65750;47.540;19.090;2023-03-14T14:25:50;15.43;;;4.82;;
75847;SDS011;65750;47.540;19.090;2023-03-14T14:28:21;11.73;;;4.22;;
75847;SDS011;65750;47.540;19.090;2023-03-14T14:31:00;11.60;;;4.05;;
75847;SDS011;65750;47.540;19.090;2023-03-14T14:33:30;14.57;;;4.72;;
75847;SDS011;65750;47.540;19.090;2023-03-14T14:36:05;12.07;;;4.83;;
75847;SDS011;65750;47.540;19.090;2023-03-14T14:38:41;20.20;;;4.95;;
75847;SDS011;65750;47.540;19.090;2023-03-14T14:41:10;16.02;;;4.55;;
75847;SDS011;65750;47.540;19.090;2023-03-14T14:43:38;12.88;;;4.47;;
75847;SDS011;65750;47.540;19.090;2023-03-14T14:46:08;16.12;;;4.30;;
75847;SDS011;65750;47.540;19.090;2023-03-14T14:48:36;15.43;;;4.93;;